Time;durP1;ratioP1;P1;durP2;ratioP2;P2;SDS_P1;SDS_P2;PMS_P1;PMS_P2;Temp;Humidity;BMP_temperature;BMP_pressure;BME280_temperature;BME280_humidity;BME280_pressure;Samples;Min_cycle;Max_cycle;Signal;HPM_P1;HPM_P2
2020/08/13 00:00:43;;;;;;;26.4;24.05;;;;;;;18.48;88.56543;95124.28;;;;
2020/08/13 00:01:49;;;;;;;26.4;24.05;;;;;;;18.48;88.56543;95124.28;;;;
2020/08/13 00:02:54;;;;;;;26.4;24.05;;;;;;;18.48;88.56543;95124.28;;;;
2020/08/13 00:03:54;;;;;;;26.4;24.05;;;;;;;18.48;88.56543;95124.28;;;;
2020/08/13 00:04:59;;;;;;;26.4;24.05;;;;;;;18.48;88.56543;95124.28;;;;
2020/08/13 00:06:04;;;;;;;26.4;24.05;;;;;;;18.48;88.56543;95124.28;;;;
2020/08/13 00:07:09;;;;;;;26.4;24.05;;;;;;;18.48;88.56543;95124.28;;;;
2020/08/13 00:08:15;;;;;;;27.45;24.95;;;;;;;18.41;89.25586;95114.78;;;;
2020/08/13 00:09:16;;;;;;;27.45;24.95;;;;;;;18.41;89.25586;95114.78;;;;
2020/08/13 00:10:24;;;;;;;27.45;24.95;;;;;;;18.41;89.25586;95114.78;;;;
2020/08/13 00:11:28;;;;;;;27.45;24.95;;;;;;;18.41;89.25586;95114.78;;;;
2020/08/13 00:12:29;;;;;;;27.45;24.95;;;;;;;18.41;89.25586;95114.78;;;;
2020/08/13 00:13:36;;;;;;;27.45;24.95;;;;;;;18.41;89.25586;95114.78;;;;
2020/08/13 00:14:42;;;;;;;27.45;24.95;;;;;;;18.41;89.25586;95114.78;;;;
2020/08/13 00:15:43;;;;;;;27.45;24.95;;;;;;;18.41;89.25586;95114.78;;;;
2020/08/13 00:16:47;;;;;;;27.45;24.95;;;;;;;18.41;89.25586;95114.78;;;;
2020/08/13 00:17:52;;;;;;;27.45;24.95;;;;;;;18.41;89.25586;95114.78;;;;
2020/08/13 00:18:52;;;;;;;27.45;24.9;;;;;;;18.29;89.85059;95118.27;;;;
2020/08/13 00:19:57;;;;;;;27.45;24.9;;;;;;;18.29;89.85059;95118.27;;;;
2020/08/13 00:21:05;;;;;;;27.45;24.9;;;;;;;18.29;89.85059;95118.27;;;;
2020/08/13 00:22:11;;;;;;;27.45;24.9;;;;;;;18.29;89.85059;95118.27;;;;
2020/08/13 00:23:16;;;;;;;27.45;24.9;;;;;;;18.29;89.85059;95118.27;;;;
2020/08/13 00:24:17;;;;;;;27.45;24.9;;;;;;;18.29;89.85059;95118.27;;;;
2020/08/13 00:25:22;;;;;;;27.45;24.9;;;;;;;18.29;89.85059;95118.27;;;;
2020/08/13 00:26:28;;;;;;;27.45;24.9;;;;;;;18.29;89.85059;95118.27;;;;
2020/08/13 00:27:29;;;;;;;27.45;24.9;;;;;;;18.29;89.85059;95118.27;;;;
2020/08/13 00:28:33;;;;;;;29.1;26.4;;;;;;;18.27;90.52832;95107.78;;;;
2020/08/13 00:29:39;;;;;;;29.1;26.4;;;;;;;18.27;90.52832;95107.78;;;;
2020/08/13 00:30:40;;;;;;;29.1;26.4;;;;;;;18.27;90.52832;95107.78;;;;
2020/08/13 00:31:46;;;;;;;29.1;26.4;;;;;;;18.27;90.52832;95107.78;;;;
2020/08/13 00:32:49;;;;;;;29.1;26.4;;;;;;;18.27;90.52832;95107.78;;;;
2020/08/13 00:33:49;;;;;;;29.1;26.4;;;;;;;18.27;90.52832;95107.78;;;;
2020/08/13 00:34:57;;;;;;;29.1;26.4;;;;;;;18.27;90.52832;95107.78;;;;
2020/08/13 00:36:01;;;;;;;29.1;26.4;;;;;;;18.27;90.52832;95107.78;;;;
2020/08/13 00:37:09;;;;;;;29.1;26.4;;;;;;;18.27;90.52832;95107.78;;;;
2020/08/13 00:38:14;;;;;;;29.1;26.4;;;;;;;18.27;90.52832;95107.78;;;;
2020/08/13 00:39:15;;;;;;;27.45;25.1;;;;;;;18.15;91.1875;95109.11;;;;
2020/08/13 00:40:20;;;;;;;27.45;25.1;;;;;;;18.15;91.1875;95109.11;;;;
2020/08/13 00:41:26;;;;;;;27.45;25.1;;;;;;;18.15;91.1875;95109.11;;;;
2020/08/13 00:42:31;;;;;;;27.45;25.1;;;;;;;18.15;91.1875;95109.11;;;;
2020/08/13 00:43:35;;;;;;;27.45;25.1;;;;;;;18.15;91.1875;95109.11;;;;
2020/08/13 00:44:40;;;;;;;27.45;25.1;;;;;;;18.15;91.1875;95109.11;;;;
2020/08/13 00:45:41;;;;;;;27.45;25.1;;;;;;;18.15;91.1875;95109.11;;;;
2020/08/13 00:46:45;;;;;;;27.45;25.1;;;;;;;18.15;91.1875;95109.11;;;;
2020/08/13 00:47:51;;;;;;;27.45;25.1;;;;;;;18.15;91.1875;95109.11;;;;
2020/08/13 00:48:57;;;;;;;27.45;25.1;;;;;;;18.15;91.1875;95109.11;;;;
2020/08/13 00:49:58;;;;;;;29.1;26.15;;;;;;;18.1;91.77148;95102.87;;;;
2020/08/13 00:51:04;;;;;;;29.1;26.15;;;;;;;18.1;91.77148;95102.87;;;;
2020/08/13 00:52:08;;;;;;;29.1;26.15;;;;;;;18.1;91.77148;95102.87;;;;
2020/08/13 00:53:10;;;;;;;29.1;26.15;;;;;;;18.1;91.77148;95102.87;;;;
2020/08/13 00:54:13;;;;;;;29.1;26.15;;;;;;;18.1;91.77148;95102.87;;;;
2020/08/13 00:55:17;;;;;;;29.1;26.15;;;;;;;18.1;91.77148;95102.87;;;;
2020/08/13 00:56:25;;;;;;;29.1;26.15;;;;;;;18.1;91.77148;95102.87;;;;
2020/08/13 00:57:28;;;;;;;29.1;26.15;;;;;;;18.1;91.77148;95102.87;;;;
2020/08/13 00:58:34;;;;;;;29.1;26.15;;;;;;;18.1;91.77148;95102.87;;;;
2020/08/13 00:59:40;;;;;;;29.1;26.15;;;;;;;18.1;91.77148;95102.87;;;;
2020/08/13 01:00:47;;;;;;;28.25;25.55;;;;;;;17.99;92.34375;95107.78;;;;
2020/08/13 01:01:53;;;;;;;28.25;25.55;;;;;;;17.99;92.34375;95107.78;;;;
2020/08/13 01:03:01;;;;;;;28.25;25.55;;;;;;;17.99;92.34375;95107.78;;;;
2020/08/13 01:04:11;;;;;;;28.25;25.55;;;;;;;17.99;92.34375;95107.78;;;;
2020/08/13 01:05:16;;;;;;;28.25;25.55;;;;;;;17.99;92.34375;95107.78;;;;
2020/08/13 01:06:21;;;;;;;28.25;25.55;;;;;;;17.99;92.34375;95107.78;;;;
2020/08/13 01:07:26;;;;;;;28.25;25.55;;;;;;;17.99;92.34375;95107.78;;;;
2020/08/13 01:08:38;;;;;;;28.25;25.55;;;;;;;17.99;92.34375;95107.78;;;;
2020/08/13 01:09:52;;;;;;;28.25;25.55;;;;;;;17.99;92.34375;95107.78;;;;
2020/08/13 01:11:00;;;;;;;30.2;27.5;;;;;;;17.96;92.91211;95102.86;;;;
2020/08/13 01:12:11;;;;;;;30.2;27.5;;;;;;;17.96;92.91211;95102.86;;;;
2020/08/13 01:13:21;;;;;;;30.2;27.5;;;;;;;17.96;92.91211;95102.86;;;;
2020/08/13 01:14:32;;;;;;;30.2;27.5;;;;;;;17.96;92.91211;95102.86;;;;
2020/08/13 01:15:39;;;;;;;30.2;27.5;;;;;;;17.96;92.91211;95102.86;;;;
2020/08/13 01:16:45;;;;;;;30.2;27.5;;;;;;;17.96;92.91211;95102.86;;;;
2020/08/13 01:17:53;;;;;;;30.2;27.5;;;;;;;17.96;92.91211;95102.86;;;;
2020/08/13 01:18:58;;;;;;;30.2;27.5;;;;;;;17.96;92.91211;95102.86;;;;
2020/08/13 01:20:04;;;;;;;30.2;27.5;;;;;;;17.96;92.91211;95102.86;;;;
2020/08/13 01:21:13;;;;;;;30.2;27.5;;;;;;;17.96;92.91211;95102.86;;;;
2020/08/13 01:22:23;;;;;;;29.5;26.8;;;;;;;17.86;93.4873;95095.17;;;;
2020/08/13 01:23:34;;;;;;;29.5;26.8;;;;;;;17.86;93.4873;95095.17;;;;
2020/08/13 01:24:58;;;;;;;29.5;26.8;;;;;;;17.86;93.4873;95095.17;;;;
2020/08/13 01:26:07;;;;;;;29.5;26.8;;;;;;;17.86;93.4873;95095.17;;;;
2020/08/13 01:27:11;;;;;;;29.5;26.8;;;;;;;17.86;93.4873;95095.17;;;;
2020/08/13 01:28:15;;;;;;;29.5;26.8;;;;;;;17.86;93.4873;95095.17;;;;
2020/08/13 01:29:22;;;;;;;29.5;26.8;;;;;;;17.86;93.4873;95095.17;;;;
2020/08/13 01:30:27;;;;;;;29.5;26.8;;;;;;;17.86;93.4873;95095.17;;;;
2020/08/13 01:31:33;;;;;;;29.5;26.8;;;;;;;17.86;93.4873;95095.17;;;;
2020/08/13 01:32:39;;;;;;;31.25;28.45;;;;;;;17.83;94.04199;95081.69;;;;
2020/08/13 01:33:44;;;;;;;31.25;28.45;;;;;;;17.83;94.04199;95081.69;;;;
2020/08/13 01:34:55;;;;;;;31.25;28.45;;;;;;;17.83;94.04199;95081.69;;;;
2020/08/13 01:36:04;;;;;;;31.25;28.45;;;;;;;17.83;94.04199;95081.69;;;;
2020/08/13 01:37:09;;;;;;;31.25;28.45;;;;;;;17.83;94.04199;95081.69;;;;
2020/08/13 01:38:22;;;;;;;31.25;28.45;;;;;;;17.83;94.04199;95081.69;;;;
2020/08/13 01:39:28;;;;;;;31.25;28.45;;;;;;;17.83;94.04199;95081.69;;;;
2020/08/13 01:40:35;;;;;;;31.25;28.45;;;;;;;17.83;94.04199;95081.69;;;;
2020/08/13 01:41:49;;;;;;;31.25;28.45;;;;;;;17.83;94.04199;95081.69;;;;
2020/08/13 01:42:55;;;;;;;29.5;26.9;;;;;;;17.76;94.62207;95074.75;;;;
2020/08/13 01:44:04;;;;;;;29.5;26.9;;;;;;;17.76;94.62207;95074.75;;;;
2020/08/13 01:45:10;;;;;;;29.5;26.9;;;;;;;17.76;94.62207;95074.75;;;;
2020/08/13 01:46:19;;;;;;;29.5;26.9;;;;;;;17.76;94.62207;95074.75;;;;
2020/08/13 01:47:24;;;;;;;29.5;26.9;;;;;;;17.76;94.62207;95074.75;;;;
2020/08/13 01:48:39;;;;;;;29.5;26.9;;;;;;;17.76;94.62207;95074.75;;;;
2020/08/13 01:49:45;;;;;;;29.5;26.9;;;;;;;17.76;94.62207;95074.75;;;;
2020/08/13 01:50:51;;;;;;;29.5;26.9;;;;;;;17.76;94.62207;95074.75;;;;
2020/08/13 01:51:56;;;;;;;29.5;26.9;;;;;;;17.76;94.62207;95074.75;;;;
2020/08/13 01:53:06;;;;;;;29.5;26.9;;;;;;;17.76;94.62207;95074.75;;;;
2020/08/13 01:54:10;;;;;;;30;27.2;;;;;;;17.74;95.14844;95064.65;;;;
2020/08/13 01:55:18;;;;;;;30;27.2;;;;;;;17.74;95.14844;95064.65;;;;
2020/08/13 01:56:26;;;;;;;30;27.2;;;;;;;17.74;95.14844;95064.65;;;;
2020/08/13 01:57:27;;;;;;;30;27.2;;;;;;;17.74;95.14844;95064.65;;;;
2020/08/13 01:58:32;;;;;;;30;27.2;;;;;;;17.74;95.14844;95064.65;;;;
2020/08/13 01:59:37;;;;;;;30;27.2;;;;;;;17.74;95.14844;95064.65;;;;
2020/08/13 02:00:39;;;;;;;30;27.2;;;;;;;17.74;95.14844;95064.65;;;;
2020/08/13 02:01:50;;;;;;;30;27.2;;;;;;;17.74;95.14844;95064.65;;;;
2020/08/13 02:02:55;;;;;;;30;27.2;;;;;;;17.74;95.14844;95064.65;;;;
2020/08/13 02:03:58;;;;;;;28.95;26.35;;;;;;;17.67;95.62012;95065;;;;
2020/08/13 02:05:09;;;;;;;28.95;26.35;;;;;;;17.67;95.62012;95065;;;;
2020/08/13 02:06:17;;;;;;;28.95;26.35;;;;;;;17.67;95.62012;95065;;;;
2020/08/13 02:07:24;;;;;;;28.95;26.35;;;;;;;17.67;95.62012;95065;;;;
2020/08/13 02:08:29;;;;;;;28.95;26.35;;;;;;;17.67;95.62012;95065;;;;
2020/08/13 02:09:35;;;;;;;28.95;26.35;;;;;;;17.67;95.62012;95065;;;;
2020/08/13 02:10:42;;;;;;;28.95;26.35;;;;;;;17.67;95.62012;95065;;;;
2020/08/13 02:11:47;;;;;;;28.95;26.35;;;;;;;17.67;95.62012;95065;;;;
2020/08/13 02:12:48;;;;;;;28.95;26.35;;;;;;;17.67;95.62012;95065;;;;
2020/08/13 02:13:53;;;;;;;28.95;26.35;;;;;;;17.67;95.62012;95065;;;;
2020/08/13 02:14:57;;;;;;;27.9;25.4;;;;;;;17.65;96.08105;95064.47;;;;
2020/08/13 02:16:04;;;;;;;27.9;25.4;;;;;;;17.65;96.08105;95064.47;;;;
2020/08/13 02:17:11;;;;;;;27.9;25.4;;;;;;;17.65;96.08105;95064.47;;;;
2020/08/13 02:18:16;;;;;;;27.9;25.4;;;;;;;17.65;96.08105;95064.47;;;;
2020/08/13 02:19:22;;;;;;;27.9;25.4;;;;;;;17.65;96.08105;95064.47;;;;
2020/08/13 02:20:28;;;;;;;27.9;25.4;;;;;;;17.65;96.08105;95064.47;;;;
2020/08/13 02:21:33;;;;;;;27.9;25.4;;;;;;;17.65;96.08105;95064.47;;;;
2020/08/13 02:22:38;;;;;;;27.9;25.4;;;;;;;17.65;96.08105;95064.47;;;;
2020/08/13 02:23:44;;;;;;;27.9;25.4;;;;;;;17.65;96.08105;95064.47;;;;
2020/08/13 02:24:48;;;;;;;27.9;25.4;;;;;;;17.65;96.08105;95064.47;;;;
2020/08/13 02:25:49;;;;;;;28.35;25.8;;;;;;;17.56;96.52734;95042.96;;;;
2020/08/13 02:26:54;;;;;;;28.35;25.8;;;;;;;17.56;96.52734;95042.96;;;;
2020/08/13 02:27:58;;;;;;;28.35;25.8;;;;;;;17.56;96.52734;95042.96;;;;
2020/08/13 02:29:02;;;;;;;28.35;25.8;;;;;;;17.56;96.52734;95042.96;;;;
2020/08/13 02:30:07;;;;;;;28.35;25.8;;;;;;;17.56;96.52734;95042.96;;;;
2020/08/13 02:31:13;;;;;;;28.35;25.8;;;;;;;17.56;96.52734;95042.96;;;;
2020/08/13 02:32:21;;;;;;;28.35;25.8;;;;;;;17.56;96.52734;95042.96;;;;
2020/08/13 02:33:26;;;;;;;28.35;25.8;;;;;;;17.56;96.52734;95042.96;;;;
2020/08/13 02:34:31;;;;;;;28.35;25.8;;;;;;;17.56;96.52734;95042.96;;;;
2020/08/13 02:35:36;;;;;;;28.35;25.8;;;;;;;17.56;96.52734;95042.96;;;;
2020/08/13 02:36:40;;;;;;;27.35;24.85;;;;;;;17.51;96.98145;95054.35;;;;
2020/08/13 02:37:46;;;;;;;27.35;24.85;;;;;;;17.51;96.98145;95054.35;;;;
2020/08/13 02:38:51;;;;;;;27.35;24.85;;;;;;;17.51;96.98145;95054.35;;;;
2020/08/13 02:39:56;;;;;;;27.35;24.85;;;;;;;17.51;96.98145;95054.35;;;;
2020/08/13 02:41:01;;;;;;;27.35;24.85;;;;;;;17.51;96.98145;95054.35;;;;
2020/08/13 02:42:05;;;;;;;27.35;24.85;;;;;;;17.51;96.98145;95054.35;;;;
2020/08/13 02:43:13;;;;;;;27.35;24.85;;;;;;;17.51;96.98145;95054.35;;;;
2020/08/13 02:44:18;;;;;;;27.35;24.85;;;;;;;17.51;96.98145;95054.35;;;;
2020/08/13 02:45:23;;;;;;;27.35;24.85;;;;;;;17.51;96.98145;95054.35;;;;
2020/08/13 02:46:28;;;;;;;28.85;26.15;;;;;;;17.39;97.4707;95059.32;;;;
2020/08/13 02:47:34;;;;;;;28.85;26.15;;;;;;;17.39;97.4707;95059.32;;;;
2020/08/13 02:48:39;;;;;;;28.85;26.15;;;;;;;17.39;97.4707;95059.32;;;;
2020/08/13 02:49:45;;;;;;;28.85;26.15;;;;;;;17.39;97.4707;95059.32;;;;
2020/08/13 02:50:50;;;;;;;28.85;26.15;;;;;;;17.39;97.4707;95059.32;;;;
2020/08/13 02:51:54;;;;;;;28.85;26.15;;;;;;;17.39;97.4707;95059.32;;;;
2020/08/13 02:53:00;;;;;;;28.85;26.15;;;;;;;17.39;97.4707;95059.32;;;;
2020/08/13 02:54:04;;;;;;;28.85;26.15;;;;;;;17.39;97.4707;95059.32;;;;
2020/08/13 02:55:09;;;;;;;28.85;26.15;;;;;;;17.39;97.4707;95059.32;;;;
2020/08/13 02:56:16;;;;;;;28.85;26.15;;;;;;;17.39;97.4707;95059.32;;;;
2020/08/13 02:57:20;;;;;;;26.6;24.25;;;;;;;17.34;97.91113;95061.27;;;;
2020/08/13 02:58:25;;;;;;;26.6;24.25;;;;;;;17.34;97.91113;95061.27;;;;
2020/08/13 02:59:30;;;;;;;26.6;24.25;;;;;;;17.34;97.91113;95061.27;;;;
2020/08/13 03:00:34;;;;;;;26.6;24.25;;;;;;;17.34;97.91113;95061.27;;;;
2020/08/13 03:01:38;;;;;;;26.6;24.25;;;;;;;17.34;97.91113;95061.27;;;;
2020/08/13 03:02:42;;;;;;;26.6;24.25;;;;;;;17.34;97.91113;95061.27;;;;
2020/08/13 03:03:47;;;;;;;26.6;24.25;;;;;;;17.34;97.91113;95061.27;;;;
2020/08/13 03:04:52;;;;;;;26.6;24.25;;;;;;;17.34;97.91113;95061.27;;;;
2020/08/13 03:05:58;;;;;;;26.6;24.25;;;;;;;17.34;97.91113;95061.27;;;;
2020/08/13 03:07:03;;;;;;;26.6;24.25;;;;;;;17.34;97.91113;95061.27;;;;
2020/08/13 03:08:09;;;;;;;27.55;25.05;;;;;;;17.2;98.27148;95054.78;;;;
2020/08/13 03:09:17;;;;;;;27.55;25.05;;;;;;;17.2;98.27148;95054.78;;;;
2020/08/13 03:10:26;;;;;;;27.55;25.05;;;;;;;17.2;98.27148;95054.78;;;;
2020/08/13 03:11:30;;;;;;;27.55;25.05;;;;;;;17.2;98.27148;95054.78;;;;
2020/08/13 03:12:34;;;;;;;27.55;25.05;;;;;;;17.2;98.27148;95054.78;;;;
2020/08/13 03:13:41;;;;;;;27.55;25.05;;;;;;;17.2;98.27148;95054.78;;;;
2020/08/13 03:14:45;;;;;;;27.55;25.05;;;;;;;17.2;98.27148;95054.78;;;;
2020/08/13 03:15:45;;;;;;;27.55;25.05;;;;;;;17.2;98.27148;95054.78;;;;
2020/08/13 03:16:51;;;;;;;27.55;25.05;;;;;;;17.2;98.27148;95054.78;;;;
2020/08/13 03:17:52;;;;;;;27.55;25.05;;;;;;;17.2;98.27148;95054.78;;;;
2020/08/13 03:18:54;;;;;;;29.8;27.05;;;;;;;17.16;98.72461;95066.02;;;;
2020/08/13 03:19:59;;;;;;;29.8;27.05;;;;;;;17.16;98.72461;95066.02;;;;
2020/08/13 03:21:05;;;;;;;29.8;27.05;;;;;;;17.16;98.72461;95066.02;;;;
2020/08/13 03:22:10;;;;;;;29.8;27.05;;;;;;;17.16;98.72461;95066.02;;;;
2020/08/13 03:23:13;;;;;;;29.8;27.05;;;;;;;17.16;98.72461;95066.02;;;;
2020/08/13 03:24:20;;;;;;;29.8;27.05;;;;;;;17.16;98.72461;95066.02;;;;
2020/08/13 03:25:26;;;;;;;29.8;27.05;;;;;;;17.16;98.72461;95066.02;;;;
2020/08/13 03:26:30;;;;;;;29.8;27.05;;;;;;;17.16;98.72461;95066.02;;;;
2020/08/13 03:27:35;;;;;;;29.8;27.05;;;;;;;17.16;98.72461;95066.02;;;;
2020/08/13 03:28:39;;;;;;;28.9;26.25;;;;;;;17.07;99.05957;95062.25;;;;
2020/08/13 03:29:44;;;;;;;28.9;26.25;;;;;;;17.07;99.05957;95062.25;;;;
2020/08/13 03:30:46;;;;;;;28.9;26.25;;;;;;;17.07;99.05957;95062.25;;;;
2020/08/13 03:31:50;;;;;;;28.9;26.25;;;;;;;17.07;99.05957;95062.25;;;;
2020/08/13 03:32:53;;;;;;;28.9;26.25;;;;;;;17.07;99.05957;95062.25;;;;
2020/08/13 03:33:55;;;;;;;28.9;26.25;;;;;;;17.07;99.05957;95062.25;;;;
2020/08/13 03:34:59;;;;;;;28.9;26.25;;;;;;;17.07;99.05957;95062.25;;;;
2020/08/13 03:36:05;;;;;;;28.9;26.25;;;;;;;17.07;99.05957;95062.25;;;;
2020/08/13 03:37:08;;;;;;;28.9;26.25;;;;;;;17.07;99.05957;95062.25;;;;
2020/08/13 03:38:14;;;;;;;28.9;26.25;;;;;;;17.07;99.05957;95062.25;;;;
2020/08/13 03:39:21;;;;;;;29.1;26.35;;;;;;;17.07;99.55469;95049.97;;;;
2020/08/13 03:40:27;;;;;;;29.1;26.35;;;;;;;17.07;99.55469;95049.97;;;;
2020/08/13 03:41:32;;;;;;;29.1;26.35;;;;;;;17.07;99.55469;95049.97;;;;
2020/08/13 03:42:36;;;;;;;29.1;26.35;;;;;;;17.07;99.55469;95049.97;;;;
2020/08/13 03:43:42;;;;;;;29.1;26.35;;;;;;;17.07;99.55469;95049.97;;;;
2020/08/13 03:44:47;;;;;;;29.1;26.35;;;;;;;17.07;99.55469;95049.97;;;;
2020/08/13 03:45:48;;;;;;;29.1;26.35;;;;;;;17.07;99.55469;95049.97;;;;
2020/08/13 03:46:52;;;;;;;29.1;26.35;;;;;;;17.07;99.55469;95049.97;;;;
2020/08/13 03:47:59;;;;;;;29.1;26.35;;;;;;;17.07;99.55469;95049.97;;;;
2020/08/13 03:49:02;;;;;;;29.1;26.35;;;;;;;17.07;99.55469;95049.97;;;;
2020/08/13 03:50:07;;;;;;;29.85;27.05;;;;;;;16.99;99.89551;95055.47;;;;
2020/08/13 03:51:12;;;;;;;29.85;27.05;;;;;;;16.99;99.89551;95055.47;;;;
2020/08/13 03:52:21;;;;;;;29.85;27.05;;;;;;;16.99;99.89551;95055.47;;;;
2020/08/13 03:53:25;;;;;;;29.85;27.05;;;;;;;16.99;99.89551;95055.47;;;;
2020/08/13 03:54:32;;;;;;;29.85;27.05;;;;;;;16.99;99.89551;95055.47;;;;
2020/08/13 03:55:38;;;;;;;29.85;27.05;;;;;;;16.99;99.89551;95055.47;;;;
2020/08/13 03:56:42;;;;;;;29.85;27.05;;;;;;;16.99;99.89551;95055.47;;;;
2020/08/13 03:57:48;;;;;;;29.85;27.05;;;;;;;16.99;99.89551;95055.47;;;;
2020/08/13 03:58:53;;;;;;;29.85;27.05;;;;;;;16.99;99.89551;95055.47;;;;
2020/08/13 03:59:59;;;;;;;29.85;27.05;;;;;;;16.99;99.89551;95055.47;;;;
2020/08/13 04:01:06;;;;;;;29.3;26.6;;;;;;;16.92;100;95050.87;;;;
2020/08/13 04:02:11;;;;;;;29.3;26.6;;;;;;;16.92;100;95050.87;;;;
2020/08/13 04:03:17;;;;;;;29.3;26.6;;;;;;;16.92;100;95050.87;;;;
2020/08/13 04:04:24;;;;;;;29.3;26.6;;;;;;;16.92;100;95050.87;;;;
2020/08/13 04:05:31;;;;;;;29.3;26.6;;;;;;;16.92;100;95050.87;;;;
2020/08/13 04:06:35;;;;;;;29.3;26.6;;;;;;;16.92;100;95050.87;;;;
2020/08/13 04:08:46;;;;;;;29.3;26.6;;;;;;;16.92;100;95050.87;;;;
2020/08/13 04:09:48;;;;;;;29.3;26.6;;;;;;;16.92;100;95050.87;;;;
2020/08/13 04:10:53;;;;;;;29.3;26.6;;;;;;;16.92;100;95050.87;;;;
2020/08/13 04:11:57;;;;;;;30.75;27.85;;;;;;;16.98;100;95055.59;;;;
2020/08/13 04:12:58;;;;;;;30.75;27.85;;;;;;;16.98;100;95055.59;;;;
2020/08/13 04:14:03;;;;;;;30.75;27.85;;;;;;;16.98;100;95055.59;;;;
2020/08/13 04:15:08;;;;;;;30.75;27.85;;;;;;;16.98;100;95055.59;;;;
2020/08/13 04:16:13;;;;;;;30.75;27.85;;;;;;;16.98;100;95055.59;;;;
2020/08/13 04:17:19;;;;;;;30.75;27.85;;;;;;;16.98;100;95055.59;;;;
2020/08/13 04:18:19;;;;;;;30.75;27.85;;;;;;;16.98;100;95055.59;;;;
2020/08/13 04:19:25;;;;;;;30.75;27.85;;;;;;;16.98;100;95055.59;;;;
2020/08/13 04:20:30;;;;;;;30.75;27.85;;;;;;;16.98;100;95055.59;;;;
2020/08/13 04:21:31;;;;;;;30.75;27.85;;;;;;;16.98;100;95055.59;;;;
2020/08/13 04:22:36;;;;;;;28.65;26;;;;;;;17.01;100;95068.28;;;;
2020/08/13 04:23:42;;;;;;;28.65;26;;;;;;;17.01;100;95068.28;;;;
2020/08/13 04:24:46;;;;;;;28.65;26;;;;;;;17.01;100;95068.28;;;;
2020/08/13 04:25:50;;;;;;;28.65;26;;;;;;;17.01;100;95068.28;;;;
2020/08/13 04:26:55;;;;;;;28.65;26;;;;;;;17.01;100;95068.28;;;;
2020/08/13 04:27:58;;;;;;;28.65;26;;;;;;;17.01;100;95068.28;;;;
2020/08/13 04:29:06;;;;;;;28.65;26;;;;;;;17.01;100;95068.28;;;;
2020/08/13 04:30:11;;;;;;;28.65;26;;;;;;;17.01;100;95068.28;;;;
2020/08/13 04:31:12;;;;;;;28.65;26;;;;;;;17.01;100;95068.28;;;;
2020/08/13 04:32:18;;;;;;;24;21.85;;;;;;;17.14;100;95069.57;;;;
2020/08/13 04:33:23;;;;;;;24;21.85;;;;;;;17.14;100;95069.57;;;;
2020/08/13 04:34:31;;;;;;;24;21.85;;;;;;;17.14;100;95069.57;;;;
2020/08/13 04:35:37;;;;;;;24;21.85;;;;;;;17.14;100;95069.57;;;;
2020/08/13 04:36:40;;;;;;;24;21.85;;;;;;;17.14;100;95069.57;;;;
2020/08/13 04:37:47;;;;;;;24;21.85;;;;;;;17.14;100;95069.57;;;;
2020/08/13 04:38:51;;;;;;;24;21.85;;;;;;;17.14;100;95069.57;;;;
2020/08/13 04:39:53;;;;;;;24;21.85;;;;;;;17.14;100;95069.57;;;;
2020/08/13 04:40:58;;;;;;;24;21.85;;;;;;;17.14;100;95069.57;;;;
2020/08/13 04:42:03;;;;;;;24;21.85;;;;;;;17.14;100;95069.57;;;;
2020/08/13 04:43:16;;;;;;;19.95;18.25;;;;;;;17.44;100;95078.52;;;;
2020/08/13 04:44:21;;;;;;;19.95;18.25;;;;;;;17.44;100;95078.52;;;;
2020/08/13 04:45:26;;;;;;;19.95;18.25;;;;;;;17.44;100;95078.52;;;;
2020/08/13 04:46:32;;;;;;;19.95;18.25;;;;;;;17.44;100;95078.52;;;;
2020/08/13 04:47:39;;;;;;;19.95;18.25;;;;;;;17.44;100;95078.52;;;;
2020/08/13 04:48:44;;;;;;;19.95;18.25;;;;;;;17.44;100;95078.52;;;;
2020/08/13 04:49:49;;;;;;;19.95;18.25;;;;;;;17.44;100;95078.52;;;;
2020/08/13 04:50:53;;;;;;;19.95;18.25;;;;;;;17.44;100;95078.52;;;;
2020/08/13 04:51:59;;;;;;;19.95;18.25;;;;;;;17.44;100;95078.52;;;;
2020/08/13 04:53:09;;;;;;;19.95;18.25;;;;;;;17.44;100;95078.52;;;;
2020/08/13 04:54:15;;;;;;;19.25;17.6;;;;;;;17.74;100;95081.05;;;;
2020/08/13 04:55:21;;;;;;;19.25;17.6;;;;;;;17.74;100;95081.05;;;;
2020/08/13 04:56:27;;;;;;;19.25;17.6;;;;;;;17.74;100;95081.05;;;;
2020/08/13 04:57:31;;;;;;;19.25;17.6;;;;;;;17.74;100;95081.05;;;;
2020/08/13 04:58:39;;;;;;;19.25;17.6;;;;;;;17.74;100;95081.05;;;;
2020/08/13 04:59:44;;;;;;;19.25;17.6;;;;;;;17.74;100;95081.05;;;;
2020/08/13 05:00:50;;;;;;;19.25;17.6;;;;;;;17.74;100;95081.05;;;;
2020/08/13 05:01:57;;;;;;;19.25;17.6;;;;;;;17.74;100;95081.05;;;;
2020/08/13 05:03:02;;;;;;;19.25;17.6;;;;;;;17.74;100;95081.05;;;;
2020/08/13 05:04:06;;;;;;;18.85;17.25;;;;;;;18.16;100;95078.09;;;;
2020/08/13 05:05:14;;;;;;;18.85;17.25;;;;;;;18.16;100;95078.09;;;;
2020/08/13 05:06:20;;;;;;;18.85;17.25;;;;;;;18.16;100;95078.09;;;;
2020/08/13 05:07:24;;;;;;;18.85;17.25;;;;;;;18.16;100;95078.09;;;;
2020/08/13 05:08:30;;;;;;;18.85;17.25;;;;;;;18.16;100;95078.09;;;;
2020/08/13 05:09:36;;;;;;;18.85;17.25;;;;;;;18.16;100;95078.09;;;;
2020/08/13 05:10:38;;;;;;;18.85;17.25;;;;;;;18.16;100;95078.09;;;;
2020/08/13 05:11:43;;;;;;;18.85;17.25;;;;;;;18.16;100;95078.09;;;;
2020/08/13 05:12:47;;;;;;;18.85;17.25;;;;;;;18.16;100;95078.09;;;;
2020/08/13 05:13:52;;;;;;;18.85;17.25;;;;;;;18.16;100;95078.09;;;;
2020/08/13 05:14:58;;;;;;;18;16.15;;;;;;;18.62;99.58008;95074.21;;;;
2020/08/13 05:16:00;;;;;;;18;16.15;;;;;;;18.62;99.58008;95074.21;;;;
2020/08/13 05:17:07;;;;;;;18;16.15;;;;;;;18.62;99.58008;95074.21;;;;
2020/08/13 05:18:11;;;;;;;18;16.15;;;;;;;18.62;99.58008;95074.21;;;;
2020/08/13 05:19:16;;;;;;;18;16.15;;;;;;;18.62;99.58008;95074.21;;;;
2020/08/13 05:20:22;;;;;;;18;16.15;;;;;;;18.62;99.58008;95074.21;;;;
2020/08/13 05:21:29;;;;;;;18;16.15;;;;;;;18.62;99.58008;95074.21;;;;
2020/08/13 05:22:34;;;;;;;18;16.15;;;;;;;18.62;99.58008;95074.21;;;;
2020/08/13 05:23:48;;;;;;;18;16.15;;;;;;;18.62;99.58008;95074.21;;;;
2020/08/13 05:24:55;;;;;;;18;16.15;;;;;;;18.62;99.58008;95074.21;;;;
2020/08/13 05:25:59;;;;;;;13.05;11.85;;;;;;;19.3;98.72168;95083.91;;;;
2020/08/13 05:27:05;;;;;;;13.05;11.85;;;;;;;19.3;98.72168;95083.91;;;;
2020/08/13 05:28:10;;;;;;;13.05;11.85;;;;;;;19.3;98.72168;95083.91;;;;
2020/08/13 05:29:17;;;;;;;13.05;11.85;;;;;;;19.3;98.72168;95083.91;;;;
2020/08/13 05:30:23;;;;;;;13.05;11.85;;;;;;;19.3;98.72168;95083.91;;;;
2020/08/13 05:31:29;;;;;;;13.05;11.85;;;;;;;19.3;98.72168;95083.91;;;;
2020/08/13 05:32:34;;;;;;;13.05;11.85;;;;;;;19.3;98.72168;95083.91;;;;
2020/08/13 05:33:36;;;;;;;13.05;11.85;;;;;;;19.3;98.72168;95083.91;;;;
2020/08/13 05:34:40;;;;;;;13.05;11.85;;;;;;;19.3;98.72168;95083.91;;;;
2020/08/13 05:35:46;;;;;;;13.05;11.85;;;;;;;19.3;98.72168;95083.91;;;;
2020/08/13 05:36:52;;;;;;;10.95;9.95;;;;;;;20.02;97.30762;95089.23;;;;
2020/08/13 05:37:57;;;;;;;10.95;9.95;;;;;;;20.02;97.30762;95089.23;;;;
2020/08/13 05:39:06;;;;;;;10.95;9.95;;;;;;;20.02;97.30762;95089.23;;;;
2020/08/13 05:40:09;;;;;;;10.95;9.95;;;;;;;20.02;97.30762;95089.23;;;;
2020/08/13 05:41:16;;;;;;;10.95;9.95;;;;;;;20.02;97.30762;95089.23;;;;
2020/08/13 05:42:21;;;;;;;10.95;9.95;;;;;;;20.02;97.30762;95089.23;;;;
2020/08/13 05:43:25;;;;;;;10.95;9.95;;;;;;;20.02;97.30762;95089.23;;;;
2020/08/13 05:44:31;;;;;;;10.95;9.95;;;;;;;20.02;97.30762;95089.23;;;;
2020/08/13 05:45:33;;;;;;;10.95;9.95;;;;;;;20.02;97.30762;95089.23;;;;
2020/08/13 05:46:39;;;;;;;10;9;;;;;;;20.84;95.50488;95085.72;;;;
2020/08/13 05:47:43;;;;;;;10;9;;;;;;;20.84;95.50488;95085.72;;;;
2020/08/13 05:48:49;;;;;;;10;9;;;;;;;20.84;95.50488;95085.72;;;;
2020/08/13 05:49:51;;;;;;;10;9;;;;;;;20.84;95.50488;95085.72;;;;
2020/08/13 05:50:55;;;;;;;10;9;;;;;;;20.84;95.50488;95085.72;;;;
2020/08/13 05:51:59;;;;;;;10;9;;;;;;;20.84;95.50488;95085.72;;;;
2020/08/13 05:53:04;;;;;;;10;9;;;;;;;20.84;95.50488;95085.72;;;;
2020/08/13 05:54:08;;;;;;;10;9;;;;;;;20.84;95.50488;95085.72;;;;
2020/08/13 05:55:12;;;;;;;10;9;;;;;;;20.84;95.50488;95085.72;;;;
2020/08/13 05:56:20;;;;;;;10;9;;;;;;;20.84;95.50488;95085.72;;;;
2020/08/13 05:57:24;;;;;;;8.85;8;;;;;;;21.69;93.47168;95085.85;;;;
2020/08/13 05:58:47;;;;;;;8.85;8;;;;;;;21.69;93.47168;95085.85;;;;
2020/08/13 05:59:51;;;;;;;8.85;8;;;;;;;21.69;93.47168;95085.85;;;;
2020/08/13 06:00:52;;;;;;;8.85;8;;;;;;;21.69;93.47168;95085.85;;;;
2020/08/13 06:01:57;;;;;;;8.85;8;;;;;;;21.69;93.47168;95085.85;;;;
2020/08/13 06:03:02;;;;;;;8.85;8;;;;;;;21.69;93.47168;95085.85;;;;
2020/08/13 06:04:07;;;;;;;8.85;8;;;;;;;21.69;93.47168;95085.85;;;;
2020/08/13 06:05:11;;;;;;;8.85;8;;;;;;;21.69;93.47168;95085.85;;;;
2020/08/13 06:06:18;;;;;;;8.85;8;;;;;;;21.69;93.47168;95085.85;;;;
2020/08/13 06:07:24;;;;;;;8.85;8;;;;;;;21.69;93.47168;95085.85;;;;
2020/08/13 06:08:30;;;;;;;7.8;7.000001;;;;;;;22.66;91.15723;95086.91;;;;
2020/08/13 06:09:35;;;;;;;7.8;7.000001;;;;;;;22.66;91.15723;95086.91;;;;
2020/08/13 06:10:40;;;;;;;7.8;7.000001;;;;;;;22.66;91.15723;95086.91;;;;
2020/08/13 06:11:45;;;;;;;7.8;7.000001;;;;;;;22.66;91.15723;95086.91;;;;
2020/08/13 06:12:53;;;;;;;7.8;7.000001;;;;;;;22.66;91.15723;95086.91;;;;
2020/08/13 06:13:58;;;;;;;7.8;7.000001;;;;;;;22.66;91.15723;95086.91;;;;